createdAt,value
2022-08-26T00:02:45.573Z,97048.53
2022-08-26T00:05:48.090Z,97047.31
2022-08-26T00:08:50.169Z,97040.28
2022-08-26T00:11:53.860Z,97033.78
2022-08-26T00:14:55.519Z,97026.13
2022-08-26T00:17:57.409Z,97029.06
2022-08-26T00:20:59.012Z,97024.56
2022-08-26T00:24:00.483Z,97032.41
2022-08-26T00:27:04.934Z,97025.59
2022-08-26T00:30:12.016Z,97032.16
2022-08-26T00:33:14.610Z,97031.03
2022-08-26T00:36:20.447Z,97026.53
2022-08-26T00:39:22.101Z,97020.66
2022-08-26T00:42:24.197Z,97023.97
2022-08-26T00:45:32.958Z,97025.56
2022-08-26T00:48:37.670Z,97029.91
2022-08-26T00:51:55.157Z,97024.97
2022-08-26T00:55:09.398Z,97032.25
2022-08-26T00:58:11.154Z,97027.94
2022-08-26T01:01:12.818Z,97026.22
2022-08-26T01:04:19.183Z,97026.88
2022-08-26T01:07:21.653Z,97038.97
2022-08-26T01:10:29.657Z,97035.25
2022-08-26T01:13:32.344Z,97034.69
2022-08-26T01:16:35.485Z,97026.94
2022-08-26T01:19:43.459Z,97036.03
2022-08-26T01:22:58.673Z,97035.25
2022-08-26T01:26:19.621Z,97038.63
2022-08-26T01:29:21.845Z,97031.09
2022-08-26T01:32:25.717Z,97032.97
2022-08-26T01:35:29.303Z,97028.50
2022-08-26T01:38:31.612Z,97025.22
2022-08-26T01:41:34.990Z,97026.81
2022-08-26T01:44:42.446Z,97033.41
2022-08-26T01:47:47.480Z,97033.66
2022-08-26T01:50:51.604Z,97031.84
2022-08-26T01:53:53.792Z,97031.44
2022-08-26T01:56:56.991Z,97032.19
2022-08-26T02:00:00.913Z,97033.31
2022-08-26T02:03:16.608Z,97036.25
2022-08-26T02:06:19.684Z,97038.13
2022-08-26T02:09:22.107Z,97034.59
2022-08-26T02:12:25.805Z,97037.47
2022-08-26T02:15:28.169Z,97040.09
2022-08-26T02:18:30.960Z,97049.16
2022-08-26T02:21:32.827Z,97048.34
2022-08-26T02:24:58.962Z,97045.75
2022-08-26T02:28:01.793Z,97045.44
2022-08-26T02:31:04.868Z,97040.50
2022-08-26T02:34:15.186Z,97042.59
2022-08-26T02:37:17.740Z,97050.78
2022-08-26T02:40:24.445Z,97039.22
2022-08-26T02:43:32.686Z,97043.59
2022-08-26T02:46:34.874Z,97043.03
2022-08-26T02:49:40.069Z,97039.94
2022-08-26T02:52:46.045Z,97041.72
2022-08-26T02:55:49.421Z,97037.75
2022-08-26T02:58:51.500Z,97036.19
2022-08-26T03:01:56.136Z,97022.00
2022-08-26T03:05:02.019Z,97033.00
2022-08-26T03:08:04.619Z,97031.50
2022-08-26T03:11:06.156Z,97030.69
2022-08-26T03:14:08.369Z,97026.88
2022-08-26T03:17:09.848Z,97019.78
2022-08-26T03:20:11.729Z,97016.75
2022-08-26T03:23:15.208Z,97022.09
2022-08-26T03:26:16.825Z,97018.66
2022-08-26T03:29:36.782Z,97011.22
2022-08-26T03:32:38.309Z,97013.31
2022-08-26T03:35:45.022Z,97023.41
2022-08-26T03:38:46.649Z,97023.53
2022-08-26T03:41:48.193Z,97026.03
2022-08-26T03:44:51.374Z,97029.25
2022-08-26T03:47:53.216Z,97030.28
2022-08-26T03:50:54.645Z,97024.72
2022-08-26T03:53:57.494Z,97019.34
2022-08-26T03:56:58.967Z,97024.69
2022-08-26T04:00:00.461Z,97029.38
2022-08-26T04:03:01.954Z,97016.75
2022-08-26T04:06:04.069Z,97015.66
2022-08-26T04:09:09.247Z,97026.38
2022-08-26T04:12:11.088Z,97035.78
2022-08-26T04:15:15.738Z,97026.19
2022-08-26T04:18:17.297Z,97021.59
2022-08-26T04:21:19.703Z,97022.53
2022-08-26T04:24:24.491Z,97016.91
2022-08-26T04:27:26.110Z,97020.06
2022-08-26T04:30:28.158Z,97027.47
2022-08-26T04:33:32.456Z,97036.78
2022-08-26T04:36:34.795Z,97033.41
2022-08-26T04:39:37.258Z,97028.69
2022-08-26T04:42:38.744Z,97026.47
2022-08-26T04:45:41.695Z,97025.59
2022-08-26T04:48:43.431Z,97020.22
2022-08-26T04:51:45.230Z,97019.28
2022-08-26T04:54:46.739Z,97020.00
2022-08-26T04:57:48.213Z,97025.41
2022-08-26T05:00:51.473Z,97030.47
2022-08-26T05:03:52.967Z,97032.81
2022-08-26T05:06:57.901Z,97042.06
2022-08-26T05:10:04.705Z,97035.78
2022-08-26T05:13:16.192Z,97030.91
2022-08-26T05:16:19.634Z,97032.81
2022-08-26T05:19:21.702Z,97048.38
2022-08-26T05:22:23.179Z,97043.78
2022-08-26T05:25:24.694Z,97038.63
2022-08-26T05:28:29.876Z,97038.56
2022-08-26T05:31:33.116Z,97045.94
2022-08-26T05:34:34.677Z,97048.16
2022-08-26T05:37:38.129Z,97047.44
2022-08-26T05:40:44.510Z,97045.97
2022-08-26T05:43:46.173Z,97045.00
2022-08-26T05:46:47.715Z,97045.78
2022-08-26T05:49:51.546Z,97053.38
2022-08-26T05:52:53.252Z,97053.34
2022-08-26T05:55:56.569Z,97054.84
2022-08-26T05:59:01.387Z,97059.28
2022-08-26T06:02:02.916Z,97056.53
2022-08-26T06:05:04.869Z,97066.34
2022-08-26T06:08:13.851Z,97057.28
2022-08-26T06:11:18.857Z,97056.19
2022-08-26T06:14:20.357Z,97056.66
2022-08-26T06:17:21.802Z,97060.03
2022-08-26T06:20:24.951Z,97061.91
2022-08-26T06:23:48.277Z,97064.28
2022-08-26T06:26:52.990Z,97067.19
2022-08-26T06:29:54.694Z,97069.53
2022-08-26T06:32:56.197Z,97066.59
2022-08-26T06:35:58.347Z,97075.72
2022-08-26T06:39:04.855Z,97070.97
2022-08-26T06:42:07.165Z,97072.34
2022-08-26T06:45:09.118Z,97076.41
2022-08-26T06:48:10.730Z,97067.50
2022-08-26T06:51:14.957Z,97076.78
2022-08-26T06:54:16.377Z,97072.03
2022-08-26T06:57:17.831Z,97071.88
2022-08-26T07:00:20.621Z,97067.03
2022-08-26T07:03:22.306Z,97062.84
2022-08-26T07:06:24.623Z,97065.84
2022-08-26T07:09:29.499Z,97065.97
2022-08-26T07:12:30.991Z,97069.09
2022-08-26T07:15:33.591Z,97069.69
2022-08-26T07:18:36.967Z,97071.69
2022-08-26T07:21:44.031Z,97069.81
2022-08-26T07:25:26.261Z,97060.75
2022-08-26T07:28:28.293Z,97062.19
2022-08-26T07:31:37.378Z,97068.06
2022-08-26T07:34:42.028Z,97062.13
2022-08-26T07:37:43.509Z,97063.00
2022-08-26T07:40:44.977Z,97073.25
2022-08-26T07:43:46.785Z,97065.75
2022-08-26T07:46:52.314Z,97060.25
2022-08-26T07:49:56.483Z,97074.53
2022-08-26T07:52:58.055Z,97064.81
2022-08-26T07:55:59.569Z,97065.03
2022-08-26T07:59:01.265Z,97065.66
2022-08-26T08:02:04.254Z,97075.47
2022-08-26T08:05:06.580Z,97071.91
2022-08-26T08:08:27.049Z,97067.38
2022-08-26T08:11:31.122Z,97077.41
2022-08-26T08:14:34.466Z,97073.66
2022-08-26T08:17:35.873Z,97071.97
2022-08-26T08:20:37.337Z,97074.88
2022-08-26T08:23:39.645Z,97071.53
2022-08-26T08:26:41.611Z,97072.34
2022-08-26T08:29:43.094Z,97066.72
2022-08-26T08:32:45.390Z,97068.50
2022-08-26T08:35:48.291Z,97063.44
2022-08-26T08:38:50.078Z,97063.22
2022-08-26T08:42:20.193Z,97063.22
2022-08-26T08:45:36.646Z,97057.91
2022-08-26T08:48:46.731Z,97059.38
2022-08-26T08:52:07.473Z,97053.91
2022-08-26T08:55:10.339Z,97061.25
2022-08-26T08:58:19.126Z,97056.41
2022-08-26T09:01:43.151Z,97060.56
2022-08-26T09:05:15.410Z,97061.84
2022-08-26T09:08:23.142Z,97054.47
2022-08-26T09:11:24.837Z,97058.25
2022-08-26T09:14:27.885Z,97056.97
2022-08-26T09:17:48.042Z,97057.09
2022-08-26T09:20:58.258Z,97048.59
2022-08-26T09:24:00.091Z,97044.81
2022-08-26T09:27:01.612Z,97035.78
2022-08-26T09:30:04.665Z,97035.16
2022-08-26T09:33:10.482Z,97042.97
2022-08-26T09:36:18.567Z,97042.22
2022-08-26T09:39:39.210Z,97037.75
2022-08-26T09:42:40.719Z,97040.84
2022-08-26T09:45:50.794Z,97033.84
2022-08-26T09:48:54.475Z,97030.56
2022-08-26T09:52:03.717Z,97024.31
2022-08-26T09:55:21.902Z,97014.22
2022-08-26T09:58:34.388Z,97001.31
2022-08-26T10:01:43.363Z,96994.09
2022-08-26T10:04:52.024Z,96991.25
2022-08-26T10:07:54.206Z,96986.97
2022-08-26T10:10:59.435Z,96973.31
2022-08-26T10:14:07.750Z,96971.69
2022-08-26T10:17:13.491Z,96977.28
2022-08-26T10:20:23.346Z,96972.53
2022-08-26T10:23:31.009Z,96967.53
2022-08-26T10:27:05.750Z,96958.09
2022-08-26T10:30:14.735Z,96956.25
2022-08-26T10:33:18.383Z,96961.03
2022-08-26T10:37:05.197Z,96966.13
2022-08-26T10:40:07.481Z,96947.91
2022-08-26T10:43:17.358Z,96955.28
2022-08-26T10:46:27.084Z,96951.25
2022-08-26T10:49:29.470Z,96957.38
2022-08-26T10:53:03.844Z,96956.59
2022-08-26T10:56:24.358Z,96951.13
2022-08-26T10:59:55.270Z,96940.06
2022-08-26T11:03:06.377Z,96939.16
2022-08-26T11:06:27.828Z,96929.72
2022-08-26T11:09:49.086Z,96925.91
2022-08-26T11:12:51.477Z,96925.38
2022-08-26T11:15:58.554Z,96916.00
2022-08-26T11:19:03.866Z,96917.22
2022-08-26T11:22:28.056Z,96909.78
2022-08-26T11:25:30.945Z,96903.94
2022-08-26T11:28:38.385Z,96898.78
2022-08-26T11:31:40.258Z,96894.53
2022-08-26T11:35:04.663Z,96897.13
2022-08-26T11:38:23.387Z,96901.50
2022-08-26T11:41:29.200Z,96892.69
2022-08-26T11:44:41.304Z,96902.34
2022-08-26T11:47:51.005Z,96890.38
2022-08-26T11:51:11.006Z,96886.09
2022-08-26T11:54:16.417Z,96890.94
2022-08-26T11:57:17.930Z,96894.63
2022-08-26T12:00:26.908Z,96894.44
2022-08-26T12:03:36.816Z,96896.19
2022-08-26T12:06:45.843Z,96891.34
2022-08-26T12:09:54.483Z,96895.69
2022-08-26T12:12:59.670Z,96889.94
2022-08-26T12:16:01.297Z,96893.00
2022-08-26T12:19:26.326Z,96896.59
2022-08-26T12:22:34.495Z,96890.63
2022-08-26T12:25:36.463Z,96891.28
2022-08-26T12:28:47.618Z,96891.72
2022-08-26T12:31:49.708Z,96895.38
2022-08-26T12:34:51.441Z,96892.69
2022-08-26T12:37:54.198Z,96887.78
2022-08-26T12:40:56.904Z,96881.72
2022-08-26T12:43:58.371Z,96879.72
2022-08-26T12:47:10.429Z,96879.03
2022-08-26T12:50:27.856Z,96876.28
2022-08-26T12:53:32.184Z,96873.31
2022-08-26T12:56:39.417Z,96870.16
2022-08-26T12:59:41.172Z,96864.25
2022-08-26T13:02:42.627Z,96860.53
2022-08-26T13:05:44.295Z,96863.56
2022-08-26T13:09:11.848Z,96853.81
2022-08-26T13:12:33.063Z,96857.25
2022-08-26T13:15:34.636Z,96855.94
2022-08-26T13:18:37.197Z,96856.41
2022-08-26T13:21:47.737Z,96847.25
2022-08-26T13:24:49.218Z,96839.53
2022-08-26T13:27:50.769Z,96837.34
2022-08-26T13:30:52.910Z,96835.72
2022-08-26T13:33:54.366Z,96825.75
2022-08-26T13:36:56.877Z,96836.63
2022-08-26T13:39:58.963Z,96829.53
2022-08-26T13:43:00.467Z,96833.81
2022-08-26T13:46:01.983Z,96838.06
2022-08-26T13:49:03.837Z,96846.38
2022-08-26T13:52:05.375Z,96839.88
2022-08-26T13:55:07.813Z,96858.28
2022-08-26T13:58:10.922Z,96850.13
2022-08-26T14:01:12.675Z,96850.75
2022-08-26T14:04:14.461Z,96842.41
2022-08-26T14:07:16.027Z,96829.19
2022-08-26T14:10:17.522Z,96827.16
2022-08-26T14:13:19.035Z,96818.28
2022-08-26T14:16:33.366Z,96831.34
2022-08-26T14:19:35.369Z,96831.66
2022-08-26T14:23:03.659Z,96834.13
2022-08-26T14:26:08.182Z,96835.81
2022-08-26T14:29:12.379Z,96847.47
2022-08-26T14:32:25.899Z,96857.75
2022-08-26T14:35:30.246Z,96876.56
2022-08-26T14:38:31.669Z,96891.59
2022-08-26T14:41:35.306Z,96895.78
2022-08-26T14:44:37.121Z,96892.06
2022-08-26T14:47:39.005Z,96894.66
2022-08-26T14:50:43.997Z,96885.66
2022-08-26T14:54:03.868Z,96877.13
2022-08-26T14:57:10.903Z,96874.84
2022-08-26T15:00:13.836Z,96863.41
2022-08-26T15:06:21.891Z,96865.06
2022-08-26T15:09:25.310Z,96873.59
2022-08-26T15:12:27.719Z,96875.25
2022-08-26T15:15:30.542Z,96874.81
2022-08-26T15:18:32.011Z,96892.97
2022-08-26T15:21:34.485Z,96884.22
2022-08-26T15:24:36.441Z,96888.59
2022-08-26T15:27:38.193Z,96883.34
2022-08-26T15:30:39.694Z,96884.59
2022-08-26T15:33:41.539Z,96871.50
2022-08-26T15:36:45.731Z,96874.03
2022-08-26T15:39:47.769Z,96879.22
2022-08-26T15:42:54.351Z,96870.66
2022-08-26T15:46:03.092Z,96869.81
2022-08-26T15:49:04.605Z,96870.88
2022-08-26T15:52:07.478Z,96868.38
2022-08-26T15:55:09.389Z,96869.03
2022-08-26T15:58:10.924Z,96871.53
2022-08-26T16:01:12.442Z,96870.66
2022-08-26T16:04:14.094Z,96877.75
2022-08-26T16:07:15.604Z,96884.81
2022-08-26T16:10:18.532Z,96913.56
2022-08-26T16:13:20.296Z,96925.00
2022-08-26T16:16:21.896Z,96932.31
2022-08-26T16:19:23.434Z,96908.19
2022-08-26T16:22:27.120Z,96925.25
2022-08-26T16:25:30.735Z,96927.44
2022-08-26T16:28:32.236Z,96933.03
2022-08-26T16:31:33.938Z,96934.22
2022-08-26T16:34:36.082Z,96943.72
2022-08-26T16:37:39.361Z,96959.00
2022-08-26T16:40:41.213Z,96959.41
2022-08-26T16:43:42.710Z,96957.69
2022-08-26T16:46:45.467Z,96966.94
2022-08-26T16:49:47.443Z,96966.00
2022-08-26T16:52:55.741Z,96965.97
2022-08-26T16:55:57.367Z,96964.09
2022-08-26T16:58:59.310Z,96963.69
2022-08-26T17:02:01.751Z,96954.38
2022-08-26T17:05:03.618Z,96962.59
2022-08-26T17:08:05.801Z,96958.16
2022-08-26T17:11:08.306Z,96961.28
2022-08-26T17:14:10.234Z,96957.53
2022-08-26T17:17:11.835Z,96952.69
2022-08-26T17:20:16.926Z,96947.06
2022-08-26T17:23:19.715Z,96945.00
2022-08-26T17:26:21.213Z,96933.22
2022-08-26T17:29:22.727Z,96915.53
2022-08-26T17:32:24.204Z,96927.34
2022-08-26T17:35:26.207Z,96907.56
2022-08-26T17:38:28.993Z,96916.63
2022-08-26T17:41:30.565Z,96919.56
2022-08-26T17:44:32.065Z,96916.28
2022-08-26T17:47:33.916Z,96924.88
2022-08-26T17:50:35.553Z,96922.34
2022-08-26T17:53:38.482Z,96929.91
2022-08-26T17:56:40.020Z,96936.75
2022-08-26T17:59:43.082Z,96946.56
2022-08-26T18:02:45.365Z,96938.47
2022-08-26T18:05:49.347Z,96944.28
2022-08-26T18:08:51.318Z,96950.56
2022-08-26T18:11:55.122Z,96953.00
2022-08-26T18:14:56.581Z,96956.88
2022-08-26T18:17:58.411Z,96950.81
2022-08-26T18:21:01.825Z,96952.28
2022-08-26T18:24:04.032Z,96954.59
2022-08-26T18:27:05.584Z,96946.50
2022-08-26T18:30:16.597Z,96964.72
2022-08-26T18:33:21.316Z,96972.66
2022-08-26T18:36:27.073Z,96997.81
2022-08-26T18:39:28.560Z,97006.69
2022-08-26T18:42:30.052Z,97026.59
2022-08-26T18:45:31.511Z,97044.13
2022-08-26T18:48:34.185Z,97054.47
2022-08-26T18:51:36.651Z,97065.94
2022-08-26T18:54:38.135Z,97086.16
2022-08-26T18:57:39.690Z,97095.50
2022-08-26T19:00:41.198Z,97089.06
2022-08-26T19:03:43.224Z,97078.13
2022-08-26T19:06:47.965Z,97097.66
2022-08-26T19:09:49.667Z,97081.59
2022-08-26T19:13:00.135Z,97090.94
2022-08-26T19:16:02.370Z,97080.28
2022-08-26T19:19:04.278Z,97079.31
2022-08-26T19:22:06.319Z,97071.66
2022-08-26T19:25:10.055Z,97087.00
2022-08-26T19:28:16.822Z,97077.78
2022-08-26T19:31:18.939Z,97071.91
2022-08-26T19:34:21.066Z,97075.28
2022-08-26T19:37:23.959Z,97082.03
2022-08-26T19:40:25.621Z,97090.03
2022-08-26T19:43:27.307Z,97095.41
2022-08-26T19:46:33.256Z,97099.25
2022-08-26T19:49:36.072Z,97104.59
2022-08-26T19:52:39.606Z,97107.41
2022-08-26T19:55:42.368Z,97112.88
2022-08-26T19:58:44.973Z,97102.59
2022-08-26T20:01:47.146Z,97107.84
2022-08-26T20:05:04.943Z,97111.78
2022-08-26T20:08:06.684Z,97103.25
2022-08-26T20:11:12.204Z,97111.81
2022-08-26T20:14:18.212Z,97106.06
2022-08-26T20:17:22.338Z,97101.66
2022-08-26T20:20:42.671Z,97099.16
2022-08-26T20:23:44.349Z,97090.19
2022-08-26T20:26:46.062Z,97081.09
2022-08-26T20:29:47.856Z,97084.25
2022-08-26T20:32:49.481Z,97089.09
2022-08-26T20:35:51.343Z,97096.72
2022-08-26T20:38:54.780Z,97094.72
2022-08-26T20:41:57.106Z,97094.00
2022-08-26T20:44:58.577Z,97098.94
2022-08-26T20:48:00.409Z,97098.72
2022-08-26T20:51:02.005Z,97093.31
2022-08-26T20:54:05.133Z,97096.97
2022-08-26T20:57:06.806Z,97100.66
2022-08-26T21:00:09.554Z,97096.38
2022-08-26T21:03:11.180Z,97103.13
2022-08-26T21:06:12.891Z,97099.09
2022-08-26T21:09:18.250Z,97090.63
2022-08-26T21:12:19.744Z,97089.97
2022-08-26T21:15:22.123Z,97101.41
2022-08-26T21:18:24.479Z,97107.91
2022-08-26T21:21:27.521Z,97100.59
2022-08-26T21:24:29.333Z,97120.16
2022-08-26T21:27:30.990Z,97110.47
2022-08-26T21:30:34.588Z,97114.53
2022-08-26T21:33:36.585Z,97107.84
2022-08-26T21:36:38.099Z,97113.13
2022-08-26T21:39:39.577Z,97105.00
2022-08-26T21:42:41.386Z,97107.75
2022-08-26T21:45:42.942Z,97115.78
2022-08-26T21:48:50.767Z,97112.72
2022-08-26T21:51:52.505Z,97118.34
2022-08-26T21:54:59.700Z,97128.34
2022-08-26T21:58:02.116Z,97118.25
2022-08-26T22:01:07.539Z,97112.59
2022-08-26T22:04:10.298Z,97115.94
2022-08-26T22:07:11.976Z,97127.84
2022-08-26T22:10:13.705Z,97136.00
2022-08-26T22:13:15.755Z,97138.09
2022-08-26T22:16:18.185Z,97123.53
2022-08-26T22:19:20.825Z,97117.69
2022-08-26T22:22:26.000Z,97116.16
2022-08-26T22:25:27.559Z,97122.03
2022-08-26T22:28:29.196Z,97128.97
2022-08-26T22:31:38.021Z,97134.00
2022-08-26T22:34:41.784Z,97134.56
2022-08-26T22:37:43.645Z,97140.25
2022-08-26T22:40:48.422Z,97150.16
2022-08-26T22:43:49.919Z,97158.97
2022-08-26T22:46:54.156Z,97152.97
2022-08-26T22:49:57.557Z,97165.84
2022-08-26T22:52:58.950Z,97170.34
2022-08-26T22:56:00.868Z,97175.44
2022-08-26T22:59:06.683Z,97170.50
2022-08-26T23:02:08.243Z,97173.00
2022-08-26T23:05:13.609Z,97174.63
2022-08-26T23:08:16.395Z,97173.91
2022-08-26T23:11:18.989Z,97170.38
2022-08-26T23:14:20.709Z,97165.88
2022-08-26T23:17:22.225Z,97164.88
2022-08-26T23:20:23.910Z,97165.38
2022-08-26T23:23:28.135Z,97161.78
2022-08-26T23:26:29.584Z,97160.56
2022-08-26T23:29:31.696Z,97156.06
2022-08-26T23:32:33.191Z,97140.44
2022-08-26T23:35:34.690Z,97145.13
2022-08-26T23:38:36.368Z,97134.47
2022-08-26T23:41:42.637Z,97135.69
2022-08-26T23:44:44.204Z,97140.38
2022-08-26T23:47:47.336Z,97137.06
2022-08-26T23:51:07.623Z,97136.59
2022-08-26T23:54:09.254Z,97146.22
2022-08-26T23:57:11.120Z,97147.66
